| time (UTC) | temp F | wind direction | speed MPH | gust MPH | rain 1hr in | rain 24hr in | rain mn in | humidity % | barometer mb |
| 20260906040007 | 59 | 355 | 8.0 | 17.0 | 0.00 | 0.01 | 0.01 | 68 | 1010.5 |
| 20260906034505 | 60 | 5 | 10.0 | 17.0 | 0.00 | 0.01 | 0.01 | 66 | 1010.1 |
| 20260906033004 | 60 | 338 | 10.0 | 15.0 | 0.00 | 0.01 | 0.01 | 65 | 1010.4 |
| 20260906031504 | 60 | 355 | 8.0 | 13.0 | 0.00 | 0.01 | 0.01 | 64 | 1010.7 |
| 20260906030004 | 61 | 331 | 8.0 | 14.0 | 0.00 | 0.01 | 0.01 | 63 | 1010.7 |
| 20260906024502 | 61 | 26 | 10.0 | 19.0 | 0.00 | 0.01 | 0.01 | 63 | 1009.4 |
| 20260906023001 | 62 | 48 | 14.0 | 19.0 | 0.00 | 0.01 | 0.01 | 63 | 1008.7 |
| 20260906021503 | 63 | 29 | 12.0 | 19.0 | 0.00 | 0.01 | 0.01 | 59 | 1008.9 |
| 20260906020001 | 64 | 34 | 9.0 | 14.0 | 0.00 | 0.01 | 0.01 | 57 | 1008.6 |
| 20260906014611 | 65 | 38 | 11.0 | 14.0 | 0.00 | 0.01 | 0.01 | 55 | 1008.6 |
| 20260906013059 | 67 | 17 | 11.0 | 18.0 | 0.00 | 0.01 | 0.01 | 51 | 1008.5 |
| 20260906011613 | 68 | 5 | 11.0 | 20.0 | 0.00 | 0.01 | 0.01 | 49 | 1008.6 |
| 20260906010058 | 70 | 360 | 13.0 | 20.0 | 0.00 | 0.01 | 0.01 | 45 | 1008.5 |
| 20260906004557 | 74 | 28 | 11.0 | 15.0 | 0.00 | 0.01 | 0.01 | 34 | 1008.6 |
| 20260906003057 | 74 | 27 | 9.0 | 14.0 | 0.00 | 0.01 | 0.01 | 34 | 1008.6 |
| 20260906001601 | 75 | 40 | 10.0 | 14.0 | 0.00 | 0.01 | 0.01 | 33 | 1008.6 |
| 20260906000055 | 75 | 46 | 10.0 | 14.0 | 0.00 | 0.01 | 0.01 | 33 | 1008.6 |
| 20260905234555 | 75 | 49 | 6.0 | 16.0 | 0.00 | 0.01 | 0.01 | 33 | 1008.7 |
| 20260905233108 | 75 | 23 | 7.0 | 13.0 | 0.00 | 0.01 | 0.01 | 33 | 1008.7 |
| 20260905231555 | 74 | 355 | 7.0 | 13.0 | 0.00 | 0.01 | 0.01 | 34 | 1009.0 |